Terminal Aerodrome Forecast
Issued by NWS Glasgow, MT

Home | Current Version | Previous Version | Text Only | Print | Product List | Glossary On
Versions: 1 2 3 4 5 6 7 8 9 10 11 12 13 14 15
000
FTUS45 KGGW 170520
TAFGGW
TAF
KGGW 170520Z 1706/1806 00000KT P6SM FEW120 BKN250
     FM171500 19005KT P6SM SCT025
     FM171800 23010KT P6SM SCT130=

USA.gov is the U.S. government's official web portal to all federal, state and local government web resources and services.